createdAt,value
2023-06-05T00:00:28.332Z,99.66
2023-06-05T00:01:28.269Z,99.99
2023-06-05T00:02:28.388Z,99.82
2023-06-05T00:03:28.766Z,99.82
2023-06-05T00:04:28.265Z,99.99
2023-06-05T00:05:28.259Z,99.99
2023-06-05T00:06:28.223Z,99.91
2023-06-05T00:07:28.211Z,99.82
2023-06-05T00:08:28.225Z,99.71
2023-06-05T00:09:28.154Z,99.51
2023-06-05T00:10:28.200Z,99.20
2023-06-05T00:11:28.170Z,99.10
2023-06-05T00:12:28.141Z,99.51
2023-06-05T00:13:28.135Z,99.61
2023-06-05T00:14:28.153Z,99.41
2023-06-05T00:15:28.087Z,99.30
2023-06-05T00:16:28.096Z,99.15
2023-06-05T00:17:28.141Z,99.25
2023-06-05T00:18:28.056Z,99.35
2023-06-05T00:19:28.045Z,99.25
2023-06-05T00:20:28.057Z,99.60
2023-06-05T00:21:28.963Z,99.99
2023-06-05T00:22:28.035Z,99.99
2023-06-05T00:23:28.122Z,99.99
2023-06-05T00:24:27.978Z,99.99
2023-06-05T00:25:28.054Z,99.99
2023-06-05T00:26:28.917Z,99.99
2023-06-05T00:27:27.933Z,99.99
2023-06-05T00:28:27.949Z,99.99
2023-06-05T00:29:27.965Z,99.99
2023-06-05T00:30:27.916Z,99.99
2023-06-05T00:31:27.933Z,99.99
2023-06-05T00:32:27.910Z,99.99
2023-06-05T00:33:27.889Z,99.99
2023-06-05T00:34:27.824Z,99.99
2023-06-05T00:35:27.892Z,99.99
2023-06-05T00:36:27.822Z,99.99
2023-06-05T00:37:27.809Z,99.99
2023-06-05T00:38:27.794Z,99.99
2023-06-05T00:39:27.784Z,99.99
2023-06-05T00:40:27.748Z,99.99
2023-06-05T00:41:27.815Z,99.99
2023-06-05T00:42:27.709Z,99.99
2023-06-05T00:43:27.751Z,99.99
2023-06-05T00:44:27.711Z,99.99
2023-06-05T00:45:27.704Z,99.99
2023-06-05T00:46:27.706Z,99.99
2023-06-05T00:47:27.749Z,99.99
2023-06-05T00:48:27.670Z,99.99
2023-06-05T00:49:28.605Z,99.99
2023-06-05T00:50:27.632Z,99.99
2023-06-05T00:51:27.616Z,99.99
2023-06-05T00:52:27.577Z,99.99
2023-06-05T00:53:27.643Z,99.99
2023-06-05T00:54:27.575Z,99.99
2023-06-05T00:55:27.598Z,99.99
2023-06-05T00:56:27.545Z,99.99
2023-06-05T00:57:27.564Z,99.99
2023-06-05T00:58:27.523Z,99.99
2023-06-05T00:59:27.538Z,99.99
2023-06-05T01:00:27.470Z,99.99
2023-06-05T01:01:27.532Z,99.99
2023-06-05T01:02:27.522Z,99.99
2023-06-05T01:03:27.580Z,99.99
2023-06-05T01:04:27.414Z,99.99
2023-06-05T01:05:27.568Z,99.99
2023-06-05T01:06:27.396Z,99.99
2023-06-05T01:07:27.424Z,99.99
2023-06-05T01:08:27.386Z,99.99
2023-06-05T01:09:27.370Z,99.99
2023-06-05T01:10:27.389Z,99.99
2023-06-05T01:11:27.375Z,99.99
2023-06-05T01:12:27.310Z,99.99
2023-06-05T01:13:27.346Z,99.99
2023-06-05T01:14:27.281Z,99.99
2023-06-05T01:15:27.323Z,99.99
2023-06-05T01:16:27.300Z,99.99
2023-06-05T01:17:27.321Z,99.99
2023-06-05T01:18:27.223Z,99.99
2023-06-05T01:19:27.262Z,99.99
2023-06-05T01:20:27.236Z,99.99
2023-06-05T01:21:27.206Z,99.99
2023-06-05T01:22:27.198Z,99.99
2023-06-05T01:23:27.238Z,99.99
2023-06-05T01:24:27.142Z,99.99
2023-06-05T01:25:27.178Z,99.99
2023-06-05T01:26:27.139Z,99.99
2023-06-05T01:27:27.155Z,99.99
2023-06-05T01:28:27.154Z,99.99
2023-06-05T01:29:27.120Z,99.99
2023-06-05T01:30:27.086Z,99.99
2023-06-05T01:31:27.843Z,99.99
2023-06-05T01:32:27.087Z,99.99
2023-06-05T01:33:27.079Z,99.99
2023-06-05T01:34:27.003Z,99.99
2023-06-05T01:35:27.071Z,99.99
2023-06-05T01:36:27.002Z,99.99
2023-06-05T01:37:27.007Z,99.99
2023-06-05T01:38:26.986Z,99.99
2023-06-05T01:39:26.961Z,99.99
2023-06-05T01:40:26.935Z,99.99
2023-06-05T01:41:26.988Z,99.99
2023-06-05T01:42:26.891Z,99.99
2023-06-05T01:43:26.928Z,99.99
2023-06-05T01:44:26.896Z,99.99
2023-06-05T01:45:26.876Z,99.99
2023-06-05T01:46:26.973Z,99.99
2023-06-05T01:47:26.903Z,99.99
2023-06-05T01:48:26.807Z,99.99
2023-06-05T01:49:26.849Z,99.99
2023-06-05T01:50:26.809Z,99.99
2023-06-05T01:51:26.796Z,99.99
2023-06-05T01:52:26.752Z,99.99
2023-06-05T01:53:27.006Z,99.99
2023-06-05T01:54:27.687Z,99.99
2023-06-05T01:55:27.443Z,99.99
2023-06-05T01:56:26.727Z,99.99
2023-06-05T01:57:26.713Z,99.99
2023-06-05T01:58:26.696Z,99.99
2023-06-05T01:59:26.713Z,99.99
2023-06-05T02:00:26.649Z,99.99
2023-06-05T02:01:26.723Z,99.99
2023-06-05T02:02:26.645Z,99.99
2023-06-05T02:03:26.893Z,99.99
2023-06-05T02:04:26.621Z,99.99
2023-06-05T02:05:26.618Z,99.99
2023-06-05T02:06:26.566Z,99.99
2023-06-05T02:07:26.605Z,99.99
2023-06-05T02:08:26.580Z,99.99
2023-06-05T02:09:26.554Z,99.99
2023-06-05T02:10:26.533Z,99.99
2023-06-05T02:11:26.554Z,99.99
2023-06-05T02:12:26.587Z,99.99
2023-06-05T02:13:26.529Z,99.99
2023-06-05T02:14:26.452Z,99.99
2023-06-05T02:15:26.492Z,99.99
2023-06-05T02:16:26.473Z,99.99
2023-06-05T02:17:27.439Z,99.99
2023-06-05T02:18:26.423Z,99.99
2023-06-05T02:19:26.408Z,99.99
2023-06-05T02:20:26.367Z,99.99
2023-06-05T02:21:26.413Z,99.99
2023-06-05T02:22:26.374Z,99.99
2023-06-05T02:23:26.428Z,99.99
2023-06-05T02:24:26.314Z,99.99
2023-06-05T02:25:26.353Z,99.99
2023-06-05T02:26:26.290Z,99.99
2023-06-05T02:27:26.321Z,99.99
2023-06-05T02:28:26.282Z,99.99
2023-06-05T02:29:27.276Z,99.99
2023-06-05T02:30:26.259Z,99.99
2023-06-05T02:31:26.249Z,99.99
2023-06-05T02:32:26.297Z,99.99
2023-06-05T02:33:26.239Z,99.99
2023-06-05T02:34:26.257Z,99.99
2023-06-05T02:35:26.281Z,99.99
2023-06-05T02:36:26.173Z,99.99
2023-06-05T02:37:26.159Z,99.99
2023-06-05T02:38:26.140Z,99.99
2023-06-05T02:39:26.139Z,99.99
2023-06-05T02:40:26.161Z,99.99
2023-06-05T02:41:26.167Z,99.99
2023-06-05T02:42:26.061Z,99.99
2023-06-05T02:43:26.103Z,99.99
2023-06-05T02:44:26.779Z,99.99
2023-06-05T02:45:26.063Z,99.99
2023-06-05T02:46:26.108Z,99.99
2023-06-05T02:47:26.080Z,99.99
2023-06-05T02:48:25.978Z,99.99
2023-06-05T02:49:26.019Z,99.99
2023-06-05T02:50:25.976Z,99.99
2023-06-05T02:51:25.993Z,99.99
2023-06-05T02:52:25.961Z,99.99
2023-06-05T02:53:25.972Z,99.99
2023-06-05T02:54:25.911Z,99.99
2023-06-05T02:55:25.970Z,99.99
2023-06-05T02:56:25.904Z,99.99
2023-06-05T02:57:26.575Z,99.99
2023-06-05T02:58:26.765Z,99.99
2023-06-05T02:59:25.970Z,99.99
2023-06-05T03:00:26.638Z,99.99
2023-06-05T03:01:25.925Z,99.99
2023-06-05T03:02:25.804Z,99.99
2023-06-05T03:03:25.907Z,99.99
2023-06-05T03:04:28.499Z,99.99
2023-06-05T03:05:26.596Z,99.99
2023-06-05T03:06:25.770Z,99.99
2023-06-05T03:07:25.759Z,99.99
2023-06-05T03:08:25.706Z,99.99
2023-06-05T03:09:25.739Z,99.99
2023-06-05T03:10:25.703Z,99.99
2023-06-05T03:11:25.727Z,99.99
2023-06-05T03:12:25.650Z,99.99
2023-06-05T03:13:25.689Z,99.99
2023-06-05T03:14:25.628Z,99.99
2023-06-05T03:15:25.663Z,99.99
2023-06-05T03:16:25.698Z,99.99
2023-06-05T03:17:25.694Z,99.99
2023-06-05T03:18:25.604Z,99.99
2023-06-05T03:19:25.579Z,99.99
2023-06-05T03:20:25.541Z,99.99
2023-06-05T03:21:25.589Z,99.99
2023-06-05T03:22:25.514Z,99.99
2023-06-05T03:23:25.596Z,99.99
2023-06-05T03:24:25.514Z,99.99
2023-06-05T03:25:25.499Z,99.99
2023-06-05T03:26:25.463Z,99.99
2023-06-05T03:27:25.504Z,99.99
2023-06-05T03:28:25.475Z,99.99
2023-06-05T03:29:25.480Z,99.99
2023-06-05T03:30:25.433Z,99.99
2023-06-05T03:31:25.429Z,99.99
2023-06-05T03:32:25.383Z,99.99
2023-06-05T03:33:25.458Z,99.99
2023-06-05T03:34:25.356Z,99.99
2023-06-05T03:35:26.324Z,99.99
2023-06-05T03:36:25.373Z,99.99
2023-06-05T03:37:25.363Z,99.99
2023-06-05T03:38:25.329Z,99.99
2023-06-05T03:39:25.323Z,99.99
2023-06-05T03:40:25.304Z,99.99
2023-06-05T03:41:25.422Z,99.99
2023-06-05T03:42:25.254Z,99.99
2023-06-05T03:43:25.287Z,99.99
2023-06-05T03:44:25.248Z,99.99
2023-06-05T03:45:25.239Z,99.99
2023-06-05T03:46:26.212Z,99.99
2023-06-05T03:47:25.279Z,99.99
2023-06-05T03:48:25.176Z,99.99
2023-06-05T03:49:25.202Z,99.99
2023-06-05T03:50:25.845Z,99.99
2023-06-05T03:51:25.180Z,99.99
2023-06-05T03:52:25.141Z,99.99
2023-06-05T03:53:25.173Z,99.99
2023-06-05T03:54:25.109Z,99.99
2023-06-05T03:55:25.097Z,99.99
2023-06-05T03:56:25.059Z,99.99
2023-06-05T03:57:25.113Z,99.99
2023-06-05T03:58:26.017Z,99.99
2023-06-05T03:59:25.076Z,99.99
2023-06-05T04:00:25.027Z,99.99
2023-06-05T04:01:25.061Z,99.99
2023-06-05T04:02:25.170Z,99.99
2023-06-05T04:03:25.073Z,99.99
2023-06-05T04:04:24.991Z,99.99
2023-06-05T04:05:25.000Z,99.99
2023-06-05T04:06:24.958Z,99.99
2023-06-05T04:07:24.942Z,99.99
2023-06-05T04:08:24.902Z,99.99
2023-06-05T04:09:24.939Z,99.99
2023-06-05T04:10:24.884Z,99.99
2023-06-05T04:11:24.961Z,99.99
2023-06-05T04:12:24.874Z,99.99
2023-06-05T04:13:24.863Z,99.99
2023-06-05T04:14:24.826Z,99.99
2023-06-05T04:15:24.867Z,99.99
2023-06-05T04:16:24.840Z,99.99
2023-06-05T04:17:24.859Z,99.99
2023-06-05T04:18:24.795Z,99.99
2023-06-05T04:19:24.776Z,99.99
2023-06-05T04:20:24.746Z,99.99
2023-06-05T04:21:24.777Z,99.99
2023-06-05T04:22:24.714Z,99.99
2023-06-05T04:23:24.836Z,99.99
2023-06-05T04:24:24.729Z,99.99
2023-06-05T04:25:24.696Z,99.99
2023-06-05T04:26:24.716Z,99.99
2023-06-05T04:27:25.400Z,99.99
2023-06-05T04:28:24.630Z,99.99
2023-06-05T04:29:24.704Z,99.99
2023-06-05T04:30:24.631Z,99.99
2023-06-05T04:31:24.720Z,99.99
2023-06-05T04:32:24.620Z,99.99
2023-06-05T04:33:24.606Z,99.99
2023-06-05T04:34:24.550Z,99.99
2023-06-05T04:35:24.604Z,99.99
2023-06-05T04:36:24.544Z,99.99
2023-06-05T04:37:24.530Z,99.99
2023-06-05T04:38:24.520Z,99.99
2023-06-05T04:39:24.499Z,99.99
2023-06-05T04:40:24.493Z,99.99
2023-06-05T04:41:24.526Z,99.99
2023-06-05T04:42:24.437Z,99.99
2023-06-05T04:43:24.477Z,99.99
2023-06-05T04:44:24.438Z,99.99
2023-06-05T04:45:24.437Z,99.99
2023-06-05T04:46:24.454Z,99.99
2023-06-05T04:47:24.440Z,99.99
2023-06-05T04:48:24.407Z,99.99
2023-06-05T04:49:24.363Z,99.99
2023-06-05T04:50:24.388Z,99.99
2023-06-05T04:51:24.317Z,99.99
2023-06-05T04:52:24.338Z,99.99
2023-06-05T04:53:24.339Z,99.99
2023-06-05T04:54:24.294Z,99.99
2023-06-05T04:55:24.291Z,99.99
2023-06-05T04:56:24.303Z,99.99
2023-06-05T04:57:24.245Z,99.99
2023-06-05T04:58:24.273Z,99.99
2023-06-05T04:59:24.254Z,99.99
2023-06-05T05:00:24.218Z,99.99
2023-06-05T05:01:24.232Z,99.99
2023-06-05T05:02:24.241Z,99.99
2023-06-05T05:03:24.160Z,99.99
2023-06-05T05:04:24.198Z,99.99
2023-06-05T05:05:24.203Z,99.99
2023-06-05T05:06:24.134Z,99.99
2023-06-05T05:07:24.127Z,99.99
2023-06-05T05:08:24.135Z,99.99
2023-06-05T05:09:24.129Z,99.99
2023-06-05T05:10:24.103Z,99.99
2023-06-05T05:11:24.147Z,99.99
2023-06-05T05:12:24.049Z,99.99
2023-06-05T05:13:24.051Z,99.99
2023-06-05T05:14:24.021Z,99.99
2023-06-05T05:15:24.019Z,99.99
2023-06-05T05:16:24.034Z,99.99
2023-06-05T05:17:24.017Z,99.93
2023-06-05T05:18:23.980Z,99.99
2023-06-05T05:19:23.956Z,99.79
2023-06-05T05:20:23.983Z,99.07
2023-06-05T05:21:23.910Z,98.77
2023-06-05T05:22:23.941Z,98.86
2023-06-05T05:23:23.924Z,98.77
2023-06-05T05:24:24.587Z,98.21
2023-06-05T05:25:23.878Z,98.11
2023-06-05T05:26:23.875Z,97.80
2023-06-05T05:27:23.846Z,97.55
2023-06-05T05:28:23.861Z,97.24
2023-06-05T05:29:23.822Z,97.24
2023-06-05T05:30:23.832Z,97.04
2023-06-05T05:31:23.788Z,96.79
2023-06-05T05:32:23.809Z,95.87
2023-06-05T05:33:23.767Z,96.18
2023-06-05T05:34:23.781Z,96.08
2023-06-05T05:35:23.751Z,96.08
2023-06-05T05:36:23.726Z,95.87
2023-06-05T05:37:23.719Z,95.12
2023-06-05T05:38:23.704Z,94.60
2023-06-05T05:39:23.687Z,94.40
2023-06-05T05:40:23.713Z,94.50
2023-06-05T05:41:23.672Z,94.09
2023-06-05T05:42:23.675Z,93.79
2023-06-05T05:43:24.561Z,93.95
2023-06-05T05:44:23.618Z,94.15
2023-06-05T05:45:23.620Z,94.01
2023-06-05T05:46:24.321Z,92.93
2023-06-05T05:47:24.670Z,93.50
2023-06-05T05:48:23.589Z,92.89
2023-06-05T05:49:23.527Z,93.09
2023-06-05T05:50:23.560Z,93.05
2023-06-05T05:51:23.516Z,92.64
2023-06-05T05:52:23.554Z,91.93
2023-06-05T05:53:23.539Z,91.48
2023-06-05T05:54:23.479Z,91.48
2023-06-05T05:55:23.468Z,91.53
2023-06-05T05:56:23.479Z,90.92
2023-06-05T05:57:23.412Z,90.68
2023-06-05T05:58:23.455Z,89.50
2023-06-05T05:59:23.444Z,89.91
2023-06-05T06:00:23.413Z,90.22
2023-06-05T06:01:23.397Z,90.68
2023-06-05T06:02:23.493Z,89.66
2023-06-05T06:03:23.376Z,89.87
2023-06-05T06:04:23.414Z,90.27
2023-06-05T06:05:23.340Z,90.58
2023-06-05T06:06:23.324Z,90.03
2023-06-05T06:07:23.302Z,89.31
2023-06-05T06:08:23.335Z,88.16
2023-06-05T06:09:23.250Z,87.75
2023-06-05T06:10:23.297Z,87.04
2023-06-05T06:11:23.252Z,87.34
2023-06-05T06:12:23.232Z,87.20
2023-06-05T06:13:23.232Z,86.80
2023-06-05T06:14:23.205Z,86.49
2023-06-05T06:15:23.218Z,86.69
2023-06-05T06:16:23.256Z,86.90
2023-06-05T06:17:23.191Z,87.06
2023-06-05T06:18:23.204Z,86.25
2023-06-05T06:19:23.116Z,85.84
2023-06-05T06:20:23.133Z,85.84
2023-06-05T06:21:23.116Z,86.35
2023-06-05T06:22:23.128Z,86.82
2023-06-05T06:23:24.151Z,87.12
2023-06-05T06:24:23.078Z,85.86
2023-06-05T06:25:23.061Z,84.55
2023-06-05T06:26:23.045Z,84.10
2023-06-05T06:27:34.802Z,83.69
2023-06-05T06:28:24.078Z,82.98
2023-06-05T06:29:22.988Z,83.15
2023-06-05T06:30:23.021Z,82.81
2023-06-05T06:31:23.015Z,81.18
2023-06-05T06:32:23.020Z,81.43
2023-06-05T06:33:22.951Z,81.83
2023-06-05T06:34:22.976Z,81.43
2023-06-05T06:35:22.932Z,81.52
2023-06-05T06:36:22.948Z,82.03
2023-06-05T06:37:22.910Z,82.34
2023-06-05T06:38:22.885Z,82.10
2023-06-05T06:39:22.876Z,81.09
2023-06-05T06:40:22.920Z,80.47
2023-06-05T06:41:22.821Z,81.90
2023-06-05T06:42:22.848Z,80.94
2023-06-05T06:43:22.790Z,79.93
2023-06-05T06:44:22.799Z,80.04
2023-06-05T06:45:22.831Z,80.10
2023-06-05T06:46:22.810Z,79.59
2023-06-05T06:47:22.882Z,78.78
2023-06-05T06:48:22.840Z,78.64
2023-06-05T06:49:22.701Z,77.43
2023-06-05T06:50:22.748Z,77.84
2023-06-05T06:51:22.685Z,78.44
2023-06-05T06:52:25.692Z,77.73
2023-06-05T06:53:22.676Z,77.29
2023-06-05T06:54:22.661Z,77.29
2023-06-05T06:55:22.641Z,77.60
2023-06-05T06:56:22.659Z,76.86
2023-06-05T06:57:22.602Z,77.32
2023-06-05T06:58:22.665Z,76.58
2023-06-05T06:59:22.595Z,75.77
2023-06-05T07:00:22.591Z,75.03
2023-06-05T07:01:22.650Z,74.19
2023-06-05T07:02:22.592Z,73.38
2023-06-05T07:03:22.570Z,74.69
2023-06-05T07:04:22.589Z,74.08
2023-06-05T07:05:23.402Z,72.98
2023-06-05T07:06:22.530Z,73.52
2023-06-05T07:07:22.470Z,75.07
2023-06-05T07:08:22.490Z,73.85
2023-06-05T07:09:22.462Z,74.90
2023-06-05T07:10:22.612Z,74.96
2023-06-05T07:11:22.410Z,75.13
2023-06-05T07:12:22.420Z,74.73
2023-06-05T07:13:22.559Z,74.19
2023-06-05T07:14:22.476Z,73.68
2023-06-05T07:15:22.397Z,72.98
2023-06-05T07:16:22.529Z,72.64
2023-06-05T07:17:22.568Z,71.84
2023-06-05T07:18:22.379Z,73.35
2023-06-05T07:19:22.315Z,75.91
2023-06-05T07:20:22.312Z,75.37
2023-06-05T07:21:22.317Z,75.47
2023-06-05T07:22:22.323Z,74.46
2023-06-05T07:23:22.370Z,74.90
2023-06-05T07:24:22.302Z,75.87
2023-06-05T07:25:22.272Z,75.94
2023-06-05T07:26:22.241Z,74.12
2023-06-05T07:27:22.220Z,74.87
2023-06-05T07:28:22.268Z,75.94
2023-06-05T07:29:22.175Z,74.59
2023-06-05T07:30:22.258Z,73.55
2023-06-05T07:31:22.167Z,72.61
2023-06-05T07:32:22.218Z,72.24
2023-06-05T07:33:29.826Z,71.13
2023-06-05T07:34:23.172Z,70.29
2023-06-05T07:35:22.108Z,69.49
2023-06-05T07:36:22.168Z,69.06
2023-06-05T07:37:22.051Z,69.52
2023-06-05T07:38:22.104Z,68.32
2023-06-05T07:39:22.053Z,68.59
2023-06-05T07:40:22.067Z,67.68
2023-06-05T07:41:22.036Z,66.67
2023-06-05T07:42:22.039Z,68.05
2023-06-05T07:43:21.979Z,68.48
2023-06-05T07:44:21.994Z,70.43
2023-06-05T07:45:21.986Z,71.50
2023-06-05T07:46:22.003Z,72.07
2023-06-05T07:47:22.048Z,71.73
2023-06-05T07:48:21.957Z,71.40
2023-06-05T07:49:21.909Z,70.29
2023-06-05T07:50:21.934Z,69.96
2023-06-05T07:51:21.884Z,69.52
2023-06-05T07:52:21.913Z,69.12
2023-06-05T07:53:21.870Z,68.15
2023-06-05T07:54:21.857Z,69.96
2023-06-05T07:55:21.834Z,68.41
2023-06-05T07:56:21.846Z,67.25
2023-06-05T07:57:21.787Z,66.71
2023-06-05T07:58:21.955Z,65.51
2023-06-05T07:59:21.771Z,66.41
2023-06-05T08:00:21.765Z,67.88
2023-06-05T08:01:21.756Z,65.68
2023-06-05T08:02:21.792Z,65.65
2023-06-05T08:03:21.921Z,63.51
2023-06-05T08:04:21.806Z,64.31
2023-06-05T08:05:21.671Z,62.92
2023-06-05T08:06:21.832Z,63.58
2023-06-05T08:07:21.645Z,63.24
2023-06-05T08:08:21.669Z,64.04
2023-06-05T08:09:21.719Z,64.18
2023-06-05T08:10:21.681Z,65.35
2023-06-05T08:11:21.618Z,62.71
2023-06-05T08:12:21.641Z,63.78
2023-06-05T08:13:21.569Z,61.98
2023-06-05T08:14:21.596Z,62.25
2023-06-05T08:15:21.568Z,61.15
2023-06-05T08:16:21.708Z,61.55
2023-06-05T08:17:21.569Z,61.22
2023-06-05T08:18:21.551Z,60.99
2023-06-05T08:19:21.503Z,61.16
2023-06-05T08:20:21.502Z,61.42
2023-06-05T08:21:21.532Z,62.22
2023-06-05T08:22:21.492Z,61.12
2023-06-05T08:23:21.506Z,61.49
2023-06-05T08:24:21.472Z,60.33
2023-06-05T08:25:21.410Z,58.64
2023-06-05T08:26:21.470Z,59.98
2023-06-05T08:27:21.379Z,57.81
2023-06-05T08:28:21.428Z,58.31
2023-06-05T08:29:21.385Z,59.01
2023-06-05T08:30:21.405Z,58.41
2023-06-05T08:31:21.376Z,59.18
2023-06-05T08:32:21.383Z,57.76
2023-06-05T08:33:21.353Z,57.23
2023-06-05T08:34:21.342Z,56.63
2023-06-05T08:35:22.057Z,55.91
2023-06-05T08:36:21.302Z,56.85
2023-06-05T08:37:21.252Z,57.98
2023-06-05T08:38:21.276Z,59.64
2023-06-05T08:39:21.258Z,59.23
2023-06-05T08:40:21.263Z,59.81
2023-06-05T08:41:21.213Z,59.31
2023-06-05T08:42:22.154Z,57.86
2023-06-05T08:43:21.188Z,57.33
2023-06-05T08:44:21.896Z,58.03
2023-06-05T08:45:21.133Z,56.77
2023-06-05T08:46:21.434Z,56.05
2023-06-05T08:47:21.162Z,53.56
2023-06-05T08:48:21.138Z,53.66
2023-06-05T08:49:21.095Z,54.33
2023-06-05T08:50:21.112Z,54.41
2023-06-05T08:51:21.051Z,53.19
2023-06-05T08:52:21.092Z,53.36
2023-06-05T08:53:21.982Z,51.25
2023-06-05T08:54:21.038Z,51.57
2023-06-05T08:55:21.032Z,53.27
2023-06-05T08:56:21.038Z,55.35
2023-06-05T08:57:20.965Z,55.58
2023-06-05T08:58:21.059Z,55.16
2023-06-05T08:59:20.943Z,54.66
2023-06-05T09:00:20.954Z,55.10
2023-06-05T09:01:21.040Z,54.28
2023-06-05T09:02:20.898Z,52.42
2023-06-05T09:03:20.958Z,53.19
2023-06-05T09:04:21.017Z,52.37
2023-06-05T09:05:20.934Z,53.11
2023-06-05T09:06:20.880Z,50.21
2023-06-05T09:07:20.864Z,48.90
2023-06-05T09:08:20.821Z,48.50
2023-06-05T09:09:20.875Z,49.66
2023-06-05T09:10:20.828Z,50.04
2023-06-05T09:11:20.839Z,48.15
2023-06-05T09:12:20.800Z,47.86
2023-06-05T09:13:20.784Z,47.86
2023-06-05T09:14:20.774Z,48.18
2023-06-05T09:15:20.765Z,49.09
2023-06-05T09:16:20.875Z,51.65
2023-06-05T09:17:20.757Z,52.96
2023-06-05T09:18:20.720Z,52.72
2023-06-05T09:19:20.701Z,53.14
2023-06-05T09:20:20.665Z,52.02
2023-06-05T09:21:20.703Z,53.71
2023-06-05T09:22:20.666Z,53.81
2023-06-05T09:24:20.870Z,49.68
2023-06-05T09:25:20.623Z,50.38
2023-06-05T09:26:21.340Z,49.96
2023-06-05T09:27:20.592Z,50.88
2023-06-05T09:28:20.587Z,53.76
2023-06-05T09:29:20.600Z,50.75
2023-06-05T09:30:20.529Z,50.01
2023-06-05T09:31:20.603Z,49.96
2023-06-05T09:32:20.540Z,48.63
2023-06-05T09:33:20.510Z,46.92
2023-06-05T09:34:20.511Z,47.39
2023-06-05T09:35:20.575Z,48.67
2023-06-05T09:36:20.477Z,50.48
2023-06-05T09:37:20.463Z,51.70
2023-06-05T09:38:20.456Z,52.12
2023-06-05T09:39:20.434Z,52.39
2023-06-05T09:40:20.438Z,52.84
2023-06-05T09:41:20.439Z,50.68
2023-06-05T09:42:20.369Z,47.06
2023-06-05T09:43:20.414Z,46.12
2023-06-05T09:44:21.338Z,45.61
2023-06-05T09:45:20.357Z,44.38
2023-06-05T09:46:20.424Z,44.09
2023-06-05T09:47:20.332Z,45.09
2023-06-05T09:48:20.328Z,44.80
2023-06-05T09:49:20.324Z,45.68
2023-06-05T09:50:20.360Z,45.07
2023-06-05T09:51:20.299Z,44.97
2023-06-05T09:52:20.268Z,44.06
2023-06-05T09:53:20.278Z,42.85
2023-06-05T09:54:20.204Z,42.83
2023-06-05T09:55:20.248Z,43.11
2023-06-05T09:56:20.219Z,42.26
2023-06-05T09:57:20.203Z,43.55
2023-06-05T09:58:20.219Z,42.58
2023-06-05T09:59:20.161Z,43.69
2023-06-05T10:00:20.348Z,43.79
2023-06-05T10:01:20.221Z,44.46
2023-06-05T10:02:20.238Z,43.92
2023-06-05T10:03:20.134Z,42.72
2023-06-05T10:04:20.188Z,41.93
2023-06-05T10:05:21.879Z,41.65
2023-06-05T10:06:20.562Z,44.18
2023-06-05T10:07:20.050Z,43.27
2023-06-05T10:08:20.010Z,44.78
2023-06-05T10:09:20.198Z,43.45
2023-06-05T10:10:20.070Z,42.64
2023-06-05T10:11:20.021Z,42.72
2023-06-05T10:12:20.086Z,41.41
2023-06-05T10:13:20.074Z,41.99
2023-06-05T10:14:19.955Z,41.53
2023-06-05T10:15:19.944Z,43.98
2023-06-05T10:16:26.304Z,44.82
2023-06-05T10:17:21.021Z,44.97
2023-06-05T10:18:19.964Z,43.47
2023-06-05T10:19:19.915Z,42.42
2023-06-05T10:20:19.890Z,41.41
2023-06-05T10:21:20.567Z,41.08
2023-06-05T10:22:19.857Z,39.56
2023-06-05T10:23:19.889Z,39.04
2023-06-05T10:24:19.826Z,39.95
2023-06-05T10:25:19.818Z,39.73
2023-06-05T10:26:19.799Z,39.60
2023-06-05T10:27:20.494Z,38.01
2023-06-05T10:28:19.772Z,39.07
2023-06-05T10:29:19.782Z,38.46
2023-06-05T10:30:19.721Z,38.58
2023-06-05T10:31:19.810Z,39.47
2023-06-05T10:32:19.722Z,40.56
2023-06-05T10:33:19.708Z,39.47
2023-06-05T10:34:19.787Z,39.17
2023-06-05T10:35:19.679Z,39.82
2023-06-05T10:36:19.645Z,39.82
2023-06-05T10:37:19.684Z,37.65
2023-06-05T10:38:19.674Z,37.46
2023-06-05T10:39:19.641Z,37.77
2023-06-05T10:40:19.709Z,38.38
2023-06-05T10:41:19.632Z,37.59
2023-06-05T10:42:19.559Z,37.20
2023-06-05T10:43:19.599Z,38.09
2023-06-05T10:44:19.565Z,36.71
2023-06-05T10:45:19.546Z,37.18
2023-06-05T10:46:19.614Z,34.70
2023-06-05T10:47:19.551Z,36.40
2023-06-05T10:48:19.475Z,38.82
2023-06-05T10:49:19.522Z,40.76
2023-06-05T10:50:19.446Z,38.95
2023-06-05T10:51:19.496Z,39.50
2023-06-05T10:52:19.493Z,37.15
2023-06-05T10:53:19.434Z,37.15
2023-06-05T10:54:19.396Z,38.42
2023-06-05T10:55:19.434Z,36.33
2023-06-05T10:56:19.398Z,36.88
2023-06-05T10:57:19.379Z,34.90
2023-06-05T10:58:19.565Z,36.16
2023-06-05T10:59:19.683Z,35.24
2023-06-05T11:00:19.326Z,34.46
2023-06-05T11:01:19.527Z,35.36
2023-06-05T11:02:19.283Z,34.18
2023-06-05T11:03:19.367Z,34.66
2023-06-05T11:04:19.381Z,34.44
2023-06-05T11:05:19.274Z,32.17
2023-06-05T11:06:19.262Z,33.36
2023-06-05T11:07:19.244Z,35.57
2023-06-05T11:08:19.204Z,36.10
2023-06-05T11:09:19.250Z,35.11
2023-06-05T11:10:19.233Z,35.35
2023-06-05T11:11:19.225Z,36.94
2023-06-05T11:12:19.181Z,36.33
2023-06-05T11:13:19.174Z,38.18
2023-06-05T11:14:19.157Z,36.00
2023-06-05T11:15:19.154Z,35.18
2023-06-05T11:16:19.173Z,34.20
2023-06-05T11:17:21.736Z,35.75
2023-06-05T11:18:19.080Z,34.75
2023-06-05T11:19:19.121Z,33.56
2023-06-05T11:20:19.070Z,34.03
2023-06-05T11:21:19.067Z,33.92
2023-06-05T11:22:19.081Z,34.83
2023-06-05T11:23:19.049Z,34.94
2023-06-05T11:24:19.003Z,35.89
2023-06-05T11:25:19.038Z,38.12
2023-06-05T11:26:19.021Z,38.61
2023-06-05T11:27:18.980Z,38.77
2023-06-05T11:28:18.980Z,37.04
2023-06-05T11:29:19.002Z,37.12
2023-06-05T11:30:28.044Z,37.08
2023-06-05T11:31:19.999Z,37.55
2023-06-05T11:32:18.989Z,36.77
2023-06-05T11:33:19.487Z,36.95
2023-06-05T11:34:18.915Z,36.83
2023-06-05T11:35:18.882Z,35.02
2023-06-05T11:36:18.848Z,33.62
2023-06-05T11:37:18.875Z,34.10
2023-06-05T11:38:23.227Z,32.82
2023-06-05T11:39:19.885Z,34.58
2023-06-05T11:40:18.807Z,35.05
2023-06-05T11:41:19.489Z,37.98
2023-06-05T11:42:18.755Z,37.85
2023-06-05T11:43:18.808Z,36.05
2023-06-05T11:44:18.762Z,37.10
2023-06-05T11:45:18.772Z,36.28
2023-06-05T11:46:18.765Z,34.47
2023-06-05T11:47:18.716Z,32.57
2023-06-05T11:48:18.693Z,33.92
2023-06-05T11:49:18.716Z,34.03
2023-06-05T11:50:18.659Z,33.82
2023-06-05T11:51:18.718Z,33.92
2023-06-05T11:52:18.654Z,32.72
2023-06-05T11:53:21.330Z,32.90
2023-06-05T11:54:18.627Z,32.38
2023-06-05T11:55:18.620Z,33.04
2023-06-05T11:56:18.617Z,32.14
2023-06-05T11:57:18.731Z,30.85
2023-06-05T11:58:18.573Z,31.77
2023-06-05T11:59:18.566Z,32.76
2023-06-05T12:00:18.525Z,33.05
2023-06-05T12:01:18.694Z,33.82
2023-06-05T12:02:18.594Z,33.04
2023-06-05T12:03:18.800Z,31.16
2023-06-05T12:04:18.503Z,31.03
2023-06-05T12:05:18.482Z,30.91
2023-06-05T12:06:18.468Z,30.69
2023-06-05T12:07:18.453Z,32.16
2023-06-05T12:08:18.421Z,31.35
2023-06-05T12:09:18.505Z,32.01
2023-06-05T12:10:18.393Z,34.28
2023-06-05T12:11:18.441Z,31.89
2023-06-05T12:12:18.404Z,31.70
2023-06-05T12:13:18.377Z,31.55
2023-06-05T12:14:18.364Z,32.10
2023-06-05T12:15:18.478Z,30.51
2023-06-05T12:16:18.359Z,30.98
2023-06-05T12:17:18.363Z,30.80
2023-06-05T12:18:18.287Z,30.71
2023-06-05T12:19:18.403Z,31.73
2023-06-05T12:20:18.284Z,32.92
2023-06-05T12:21:18.307Z,33.25
2023-06-05T12:22:18.310Z,33.07
2023-06-05T12:23:18.250Z,34.46
2023-06-05T12:27:59.997Z,31.70
2023-06-05T12:28:04.766Z,31.57
2023-06-05T12:29:04.632Z,33.54
2023-06-05T12:30:04.673Z,34.16
2023-06-05T12:31:05.646Z,34.82
2023-06-05T12:32:04.729Z,37.93
2023-06-05T12:33:04.640Z,37.93
2023-06-05T12:34:04.620Z,34.77
2023-06-05T12:35:07.804Z,33.95
2023-06-05T12:36:04.577Z,33.91
2023-06-05T12:37:04.563Z,33.18
2023-06-05T12:38:04.542Z,33.46
2023-06-05T12:39:04.536Z,32.18
2023-06-05T12:40:04.543Z,32.45
2023-06-05T12:41:05.527Z,30.75
2023-06-05T12:42:05.212Z,32.09
2023-06-05T12:43:04.490Z,34.74
2023-06-05T12:44:04.464Z,35.53
2023-06-05T12:45:04.487Z,34.92
2023-06-05T12:46:04.441Z,34.53
2023-06-05T12:47:04.450Z,36.07
2023-06-05T12:48:04.488Z,34.34
2023-06-05T12:49:17.870Z,33.43
2023-06-05T12:50:04.442Z,33.31
2023-06-05T12:51:04.397Z,32.79
2023-06-05T12:52:04.390Z,32.93
2023-06-05T12:53:04.326Z,32.92
2023-06-05T12:54:04.365Z,34.06
2023-06-05T12:55:20.272Z,36.02
2023-06-05T12:56:04.314Z,35.06